createdAt,value
2022-08-30T00:01:34.252Z,12.60
2022-08-30T00:04:21.858Z,12.67
2022-08-30T00:07:08.869Z,12.64
2022-08-30T00:09:55.904Z,12.64
2022-08-30T00:12:43.864Z,12.61
2022-08-30T00:15:30.735Z,12.68
2022-08-30T00:18:19.617Z,12.66
2022-08-30T00:21:07.092Z,12.63
2022-08-30T00:23:54.627Z,12.67
2022-08-30T00:26:41.316Z,12.71
2022-08-30T00:29:28.415Z,12.74
2022-08-30T00:32:16.297Z,12.70
2022-08-30T00:35:05.495Z,12.58
2022-08-30T00:37:52.782Z,12.45
2022-08-30T00:40:43.068Z,12.33
2022-08-30T00:43:34.151Z,12.28
2022-08-30T00:46:24.079Z,12.25
2022-08-30T00:49:13.553Z,12.28
2022-08-30T00:52:03.372Z,12.25
2022-08-30T00:54:52.791Z,12.11
2022-08-30T00:57:39.796Z,12.10
2022-08-30T01:04:11.101Z,12.03
2022-08-30T01:06:58.576Z,12.10
2022-08-30T01:09:51.862Z,12.12
2022-08-30T01:12:39.878Z,12.03
2022-08-30T01:15:27.528Z,12.06
2022-08-30T01:18:17.463Z,12.12
2022-08-30T01:21:28.102Z,12.14
2022-08-30T01:24:19.642Z,12.19
2022-08-30T01:27:07.553Z,12.23
2022-08-30T01:29:55.524Z,12.11
2022-08-30T01:32:46.735Z,11.93
2022-08-30T01:35:39.080Z,11.84
2022-08-30T01:38:31.419Z,11.76
2022-08-30T01:41:22.408Z,11.77
2022-08-30T01:44:11.628Z,11.77
2022-08-30T01:46:58.806Z,11.73
2022-08-30T01:49:47.268Z,11.71
2022-08-30T01:52:34.824Z,11.58
2022-08-30T01:55:22.322Z,11.56
2022-08-30T01:58:09.447Z,11.56
2022-08-30T02:00:57.441Z,11.54
2022-08-30T02:03:46.645Z,11.52
2022-08-30T02:06:34.156Z,11.45
2022-08-30T02:09:21.172Z,11.49
2022-08-30T02:12:14.165Z,11.47
2022-08-30T02:15:02.004Z,11.44
2022-08-30T02:17:49.751Z,11.41
2022-08-30T02:20:39.401Z,11.46
2022-08-30T02:23:26.831Z,11.51
2022-08-30T02:26:14.857Z,11.56
2022-08-30T02:29:02.717Z,11.57
2022-08-30T02:31:50.212Z,11.59
2022-08-30T02:34:40.542Z,11.65
2022-08-30T02:37:27.646Z,11.72
2022-08-30T02:40:14.968Z,11.73
2022-08-30T02:43:02.183Z,11.65
2022-08-30T02:45:49.569Z,11.65
2022-08-30T02:48:37.123Z,11.65
2022-08-30T02:51:24.570Z,11.59
2022-08-30T02:54:15.785Z,11.45
2022-08-30T02:57:05.266Z,11.29
2022-08-30T02:59:53.273Z,11.24
2022-08-30T03:02:41.385Z,11.22
2022-08-30T03:05:28.610Z,11.25
2022-08-30T03:08:16.695Z,11.27
2022-08-30T03:11:04.974Z,11.32
2022-08-30T03:13:52.042Z,11.35
2022-08-30T03:16:39.800Z,11.40
2022-08-30T03:19:27.071Z,11.38
2022-08-30T03:22:14.801Z,11.44
2022-08-30T03:25:02.650Z,11.42
2022-08-30T03:27:50.737Z,11.40
2022-08-30T03:30:38.119Z,11.39
2022-08-30T03:33:25.579Z,11.35
2022-08-30T03:36:14.306Z,11.24
2022-08-30T03:39:01.734Z,11.20
2022-08-30T03:41:49.413Z,11.20
2022-08-30T03:44:37.181Z,11.23
2022-08-30T03:47:26.146Z,11.20
2022-08-30T03:50:16.048Z,11.06
2022-08-30T03:53:03.651Z,10.92
2022-08-30T03:55:50.970Z,10.84
2022-08-30T03:58:40.959Z,10.87
2022-08-30T04:01:28.249Z,10.93
2022-08-30T04:04:20.581Z,10.87
2022-08-30T04:07:09.318Z,10.87
2022-08-30T04:09:56.604Z,10.91
2022-08-30T04:12:48.776Z,10.95
2022-08-30T04:15:36.759Z,11.03
2022-08-30T04:18:23.866Z,11.09
2022-08-30T04:21:13.973Z,11.13
2022-08-30T04:24:01.438Z,11.18
2022-08-30T04:26:49.089Z,11.22
2022-08-30T04:29:36.678Z,11.29
2022-08-30T04:32:24.011Z,11.25
2022-08-30T04:35:12.965Z,11.17
2022-08-30T04:38:00.179Z,11.15
2022-08-30T04:40:50.304Z,11.21
2022-08-30T04:43:37.575Z,11.33
2022-08-30T04:46:24.915Z,11.43
2022-08-30T04:49:12.703Z,11.52
2022-08-30T04:51:59.655Z,11.52
2022-08-30T04:54:46.683Z,11.43
2022-08-30T04:57:34.227Z,11.46
2022-08-30T05:00:21.741Z,11.62
2022-08-30T05:03:09.840Z,11.78
2022-08-30T05:05:57.492Z,11.88
2022-08-30T05:08:46.389Z,11.96
2022-08-30T05:11:34.157Z,12.04
2022-08-30T05:14:21.955Z,12.18
2022-08-30T05:17:09.623Z,12.32
2022-08-30T05:19:57.208Z,12.49
2022-08-30T05:22:54.053Z,12.70
2022-08-30T05:25:42.573Z,12.89
2022-08-30T05:28:29.844Z,12.98
2022-08-30T05:31:23.491Z,13.07
2022-08-30T05:34:11.691Z,13.20
2022-08-30T05:36:59.515Z,13.37
2022-08-30T05:39:51.683Z,13.50
2022-08-30T05:42:41.423Z,13.62
2022-08-30T05:45:28.750Z,-14.56
2022-08-30T05:48:16.073Z,14.02
2022-08-30T05:51:09.532Z,14.46
2022-08-30T05:53:58.522Z,15.76
2022-08-30T05:56:47.649Z,17.16
2022-08-30T05:59:34.756Z,18.13
2022-08-30T06:02:24.330Z,-10.61
2022-08-30T06:05:14.503Z,-128.00
2022-08-30T06:08:02.224Z,-128.00
2022-08-30T06:10:49.875Z,-128.00
2022-08-30T06:13:37.337Z,-128.00
2022-08-30T06:16:27.059Z,-128.00
2022-08-30T06:19:19.377Z,-128.00
2022-08-30T06:22:06.454Z,-128.00
2022-08-30T06:24:57.314Z,-128.00
2022-08-30T06:27:45.019Z,-128.00
2022-08-30T06:30:33.905Z,-128.00
2022-08-30T06:33:23.791Z,-128.00
2022-08-30T06:36:14.164Z,-128.00
2022-08-30T06:39:01.619Z,-128.00
2022-08-30T06:41:48.963Z,-128.00
2022-08-30T06:44:49.900Z,-128.00
2022-08-30T06:47:40.168Z,-128.00
2022-08-30T06:50:27.006Z,-128.00
2022-08-30T06:53:14.230Z,-128.00
2022-08-30T06:56:16.579Z,-128.00
2022-08-30T06:59:06.561Z,-128.00
2022-08-30T07:01:54.239Z,-128.00
2022-08-30T07:04:41.790Z,-128.00
2022-08-30T07:07:28.574Z,-128.00
2022-08-30T07:10:17.483Z,-128.00
2022-08-30T07:13:04.367Z,-128.00
2022-08-30T07:15:52.532Z,-128.00
2022-08-30T07:18:54.610Z,-128.00
2022-08-30T07:21:44.074Z,-128.00
2022-08-30T07:24:31.164Z,-128.00
2022-08-30T07:27:18.635Z,-128.00
2022-08-30T07:30:10.448Z,-128.00
2022-08-30T07:32:58.918Z,-128.00
2022-08-30T07:35:46.121Z,-128.00
2022-08-30T07:38:34.212Z,-128.00
2022-08-30T07:41:23.201Z,-128.00
2022-08-30T07:44:10.762Z,-128.00
2022-08-30T07:46:58.447Z,-128.00
2022-08-30T07:49:46.007Z,-128.00
2022-08-30T07:55:23.300Z,-128.00
2022-08-30T07:58:10.566Z,-128.00
2022-08-30T08:00:59.742Z,-128.00
2022-08-30T08:03:47.983Z,-128.00
2022-08-30T08:06:39.714Z,-128.00
2022-08-30T08:09:27.181Z,-128.00
2022-08-30T08:12:14.246Z,-128.00
2022-08-30T08:15:04.178Z,-128.00
2022-08-30T08:17:55.383Z,-128.00
2022-08-30T08:20:43.008Z,-128.00
2022-08-30T08:23:30.442Z,-128.00
2022-08-30T08:26:18.744Z,-128.00
2022-08-30T08:29:07.872Z,-128.00
2022-08-30T08:31:55.219Z,-128.00
2022-08-30T08:34:42.058Z,-128.00
2022-08-30T08:37:29.373Z,-128.00
2022-08-30T08:40:19.503Z,-128.00
2022-08-30T08:43:17.528Z,-128.00
2022-08-30T08:46:29.995Z,-128.00
2022-08-30T08:49:20.099Z,-128.00
2022-08-30T08:52:31.447Z,-128.00
2022-08-30T08:55:22.361Z,-128.00
2022-08-30T08:58:22.451Z,-128.00
2022-08-30T09:01:12.239Z,-128.00
2022-08-30T09:04:03.964Z,-128.00
2022-08-30T09:06:53.967Z,-128.00
2022-08-30T09:09:41.767Z,-128.00
2022-08-30T09:12:28.943Z,-128.00
2022-08-30T09:15:23.696Z,-128.00
2022-08-30T09:18:19.784Z,-128.00
2022-08-30T09:21:08.680Z,-128.00
2022-08-30T09:24:04.575Z,-128.00
2022-08-30T09:26:51.809Z,-128.00
2022-08-30T09:29:50.958Z,-128.00
2022-08-30T09:32:46.894Z,-128.00
2022-08-30T09:35:38.384Z,-128.00
2022-08-30T09:38:34.342Z,-96.91
2022-08-30T09:41:34.981Z,27.24
2022-08-30T09:44:30.943Z,26.77
2022-08-30T09:47:28.509Z,26.37
2022-08-30T09:50:24.124Z,25.88
2022-08-30T09:53:23.725Z,25.82
2022-08-30T09:56:50.459Z,26.37
2022-08-30T09:59:51.327Z,26.84
2022-08-30T10:02:47.714Z,26.79
2022-08-30T10:05:59.181Z,26.56
2022-08-30T10:08:52.596Z,26.38
2022-08-30T10:11:47.198Z,26.06
2022-08-30T10:15:00.624Z,26.12
2022-08-30T10:18:04.693Z,26.82
2022-08-30T10:21:04.870Z,27.50
2022-08-30T10:24:04.801Z,27.99
2022-08-30T10:27:16.298Z,27.94
2022-08-30T10:30:11.515Z,28.15
2022-08-30T10:33:17.728Z,28.11
2022-08-30T10:36:10.473Z,28.05
2022-08-30T10:38:59.638Z,28.27
2022-08-30T10:41:53.484Z,27.96
2022-08-30T10:44:53.413Z,28.17
2022-08-30T10:47:48.240Z,28.66
2022-08-30T10:50:50.422Z,29.25
2022-08-30T10:53:44.628Z,29.75
2022-08-30T10:56:32.203Z,30.10
2022-08-30T10:59:21.456Z,29.78
2022-08-30T11:02:25.079Z,29.14
2022-08-30T11:05:21.842Z,28.62
2022-08-30T11:08:20.654Z,28.18
2022-08-30T11:11:12.574Z,28.47
2022-08-30T11:14:05.890Z,29.08
2022-08-30T11:16:56.672Z,29.54
2022-08-30T11:19:44.031Z,29.97
2022-08-30T11:22:39.086Z,30.17
2022-08-30T11:25:58.090Z,29.95
2022-08-30T11:28:45.457Z,29.48
2022-08-30T11:31:41.161Z,29.11
2022-08-30T11:35:07.502Z,28.67
2022-08-30T11:38:03.189Z,28.15
2022-08-30T11:41:15.055Z,27.82
2022-08-30T11:44:17.656Z,27.69
2022-08-30T11:47:20.486Z,28.01
2022-08-30T11:50:29.291Z,28.15
2022-08-30T11:53:56.713Z,28.15
2022-08-30T11:57:55.729Z,28.41
2022-08-30T12:01:40.805Z,28.03
2022-08-30T12:04:41.716Z,27.73
2022-08-30T12:08:38.809Z,27.70
2022-08-30T12:12:13.421Z,27.48
2022-08-30T12:15:38.901Z,27.53
2022-08-30T12:19:34.719Z,27.66
2022-08-30T12:23:08.754Z,27.64
2022-08-30T12:26:31.924Z,27.59
2022-08-30T12:29:46.554Z,27.38
2022-08-30T12:32:59.125Z,27.56
2022-08-30T12:36:02.680Z,28.25
2022-08-30T12:39:22.686Z,28.88
2022-08-30T12:43:02.903Z,28.70
2022-08-30T12:46:15.389Z,28.23
2022-08-30T12:50:00.828Z,27.87
2022-08-30T12:53:22.974Z,27.71
2022-08-30T12:56:55.763Z,27.78
2022-08-30T12:59:58.556Z,28.48
2022-08-30T13:03:51.544Z,29.07
2022-08-30T13:07:27.648Z,29.52
2022-08-30T13:10:50.169Z,29.91
2022-08-30T13:14:29.746Z,30.25
2022-08-30T13:18:01.799Z,30.50
2022-08-30T13:21:43.433Z,30.87
2022-08-30T13:25:01.792Z,30.97
2022-08-30T13:28:28.607Z,30.46
2022-08-30T13:32:00.857Z,29.74
2022-08-30T13:35:30.641Z,29.21
2022-08-30T13:38:50.581Z,28.78
2022-08-30T13:45:51.808Z,29.49
2022-08-30T13:48:53.968Z,29.22
2022-08-30T13:52:20.791Z,29.10
2022-08-30T13:55:27.712Z,29.50
2022-08-30T13:58:34.726Z,29.87
2022-08-30T14:02:12.220Z,30.15
2022-08-30T14:05:51.512Z,30.07
2022-08-30T14:09:25.656Z,29.92
2022-08-30T14:13:09.161Z,29.43
2022-08-30T14:16:32.820Z,28.92
2022-08-30T14:20:01.155Z,28.38
2022-08-30T14:23:50.723Z,27.94
2022-08-30T14:27:17.066Z,-34.66
2022-08-30T14:30:10.818Z,27.26
2022-08-30T14:33:18.434Z,27.30
2022-08-30T14:37:04.664Z,27.81
2022-08-30T14:40:26.978Z,28.08
2022-08-30T14:44:05.494Z,27.88
2022-08-30T14:47:25.635Z,27.60
2022-08-30T14:50:51.680Z,27.70
2022-08-30T14:54:08.835Z,28.04
2022-08-30T14:57:30.656Z,28.26
2022-08-30T15:00:51.831Z,28.45
2022-08-30T15:04:10.734Z,28.45
2022-08-30T15:07:39.734Z,28.61
2022-08-30T15:11:02.791Z,28.66
2022-08-30T15:14:19.767Z,28.83
2022-08-30T15:17:37.984Z,28.69
2022-08-30T15:21:27.708Z,28.19
2022-08-30T15:25:04.743Z,27.48
2022-08-30T15:28:16.564Z,27.03
2022-08-30T15:31:30.319Z,26.87
2022-08-30T15:34:27.961Z,26.96
2022-08-30T15:37:42.988Z,26.91
2022-08-30T15:41:02.463Z,27.10
2022-08-30T15:44:11.543Z,26.78
2022-08-30T15:47:34.691Z,26.51
2022-08-30T15:50:51.838Z,26.39
2022-08-30T15:54:08.794Z,26.36
2022-08-30T15:57:31.567Z,26.43
2022-08-30T16:00:48.804Z,26.40
2022-08-30T16:04:20.624Z,26.34
2022-08-30T16:07:56.804Z,26.25
2022-08-30T16:11:28.939Z,25.95
2022-08-30T16:14:33.118Z,25.67
2022-08-30T16:18:00.661Z,25.42
2022-08-30T16:21:24.198Z,25.07
2022-08-30T16:25:11.713Z,24.78
2022-08-30T16:28:23.116Z,24.39
2022-08-30T16:31:18.520Z,24.14
2022-08-30T16:34:30.140Z,23.89
2022-08-30T16:38:08.715Z,23.66
2022-08-30T16:41:40.954Z,23.37
2022-08-30T16:44:34.890Z,23.14
2022-08-30T16:47:22.287Z,23.00
2022-08-30T16:50:10.590Z,22.81
2022-08-30T16:53:00.389Z,22.65
2022-08-30T16:55:47.439Z,22.50
2022-08-30T16:58:37.722Z,22.36
2022-08-30T17:01:28.616Z,22.20
2022-08-30T17:04:19.626Z,22.04
2022-08-30T17:07:06.929Z,21.90
2022-08-30T17:10:01.235Z,21.77
2022-08-30T17:12:48.738Z,21.67
2022-08-30T17:15:35.940Z,21.55
2022-08-30T17:18:22.804Z,21.41
2022-08-30T17:21:12.487Z,21.25
2022-08-30T17:24:02.316Z,21.11
2022-08-30T17:26:51.347Z,20.98
2022-08-30T17:29:38.445Z,20.91
2022-08-30T17:32:27.140Z,20.80
2022-08-30T17:35:14.927Z,20.68
2022-08-30T17:38:04.445Z,20.53
2022-08-30T17:40:51.417Z,20.36
2022-08-30T17:43:39.917Z,20.21
2022-08-30T17:46:27.140Z,19.90
2022-08-30T17:49:16.785Z,19.77
2022-08-30T17:52:05.630Z,19.68
2022-08-30T17:54:54.801Z,19.56
2022-08-30T17:57:45.968Z,19.47
2022-08-30T18:00:35.873Z,19.41
2022-08-30T18:03:25.884Z,19.38
2022-08-30T18:06:18.208Z,19.23
2022-08-30T18:09:10.843Z,19.02
2022-08-30T18:11:59.876Z,18.86
2022-08-30T18:14:52.795Z,18.76
2022-08-30T18:17:43.433Z,18.63
2022-08-30T18:20:32.991Z,18.46
2022-08-30T18:23:20.770Z,18.39
2022-08-30T18:26:14.000Z,18.31
2022-08-30T18:29:07.081Z,18.27
2022-08-30T18:31:54.431Z,18.20
2022-08-30T18:34:43.166Z,18.08
2022-08-30T18:37:32.243Z,17.96
2022-08-30T18:40:22.642Z,17.84
2022-08-30T18:43:12.459Z,17.73
2022-08-30T18:46:09.439Z,17.53
2022-08-30T18:48:56.509Z,17.47
2022-08-30T18:51:50.012Z,17.41
2022-08-30T18:54:40.368Z,17.32
2022-08-30T18:57:28.196Z,17.12
2022-08-30T19:00:19.688Z,17.01
2022-08-30T19:03:07.218Z,16.94
2022-08-30T19:05:54.622Z,16.84
2022-08-30T19:08:45.906Z,16.74
2022-08-30T19:11:33.535Z,16.64
2022-08-30T19:14:21.087Z,16.55
2022-08-30T19:17:09.101Z,16.39
2022-08-30T19:19:56.901Z,16.35
2022-08-30T19:23:08.531Z,16.33
2022-08-30T19:25:52.740Z,16.25
2022-08-30T19:28:42.108Z,16.22
2022-08-30T19:31:29.560Z,16.22
2022-08-30T19:34:18.279Z,16.15
2022-08-30T19:37:08.823Z,16.05
2022-08-30T19:40:09.201Z,15.87
2022-08-30T19:42:58.385Z,15.82
2022-08-30T19:45:45.681Z,15.82
2022-08-30T19:48:42.281Z,15.78
2022-08-30T19:51:29.776Z,15.75
2022-08-30T19:54:22.163Z,15.60
2022-08-30T19:57:10.230Z,15.49
2022-08-30T19:59:57.995Z,15.45
2022-08-30T20:02:50.778Z,15.46
2022-08-30T20:05:42.457Z,15.38
2022-08-30T20:08:29.479Z,15.35
2022-08-30T20:11:18.833Z,15.34
2022-08-30T20:14:13.520Z,15.30
2022-08-30T20:17:02.266Z,15.26
2022-08-30T20:19:53.118Z,15.25
2022-08-30T20:22:50.648Z,15.20
2022-08-30T20:25:44.466Z,15.17
2022-08-30T20:28:32.025Z,15.06
2022-08-30T20:31:19.685Z,15.04
2022-08-30T20:34:14.391Z,15.00
2022-08-30T20:37:05.932Z,14.82
2022-08-30T20:39:57.287Z,14.72
2022-08-30T20:42:45.873Z,14.64
2022-08-30T20:45:34.186Z,14.56
2022-08-30T20:48:28.875Z,14.56
2022-08-30T20:51:19.886Z,14.54
2022-08-30T20:54:07.730Z,14.47
2022-08-30T20:56:55.014Z,14.50
2022-08-30T20:59:42.851Z,14.52
2022-08-30T21:02:30.096Z,14.52
2022-08-30T21:05:20.117Z,14.49
2022-08-30T21:08:14.081Z,14.40
2022-08-30T21:11:03.734Z,14.38
2022-08-30T21:13:52.367Z,14.36
2022-08-30T21:16:39.814Z,14.35
2022-08-30T21:19:27.350Z,14.30
2022-08-30T21:22:14.756Z,14.17
2022-08-30T21:25:08.939Z,14.12
2022-08-30T21:28:01.550Z,14.14
2022-08-30T21:31:10.757Z,14.07
2022-08-30T21:33:58.065Z,14.02
2022-08-30T21:36:47.919Z,14.01
2022-08-30T21:39:36.587Z,14.02
2022-08-30T21:42:36.419Z,14.04
2022-08-30T21:45:26.584Z,14.05
2022-08-30T21:48:57.286Z,14.06
2022-08-30T21:51:51.608Z,14.06
2022-08-30T21:54:41.169Z,14.09
2022-08-30T21:57:47.262Z,14.09
2022-08-30T22:00:56.636Z,13.96
2022-08-30T22:04:26.786Z,13.92
2022-08-30T22:07:55.592Z,13.80
2022-08-30T22:10:58.897Z,13.74
2022-08-30T22:14:17.652Z,13.69
2022-08-30T22:17:54.801Z,13.61
2022-08-30T22:21:14.586Z,13.57
2022-08-30T22:24:41.000Z,13.55
2022-08-30T22:28:09.555Z,13.44
2022-08-30T22:31:24.789Z,13.34
2022-08-30T22:35:03.563Z,13.34
2022-08-30T22:38:17.577Z,13.34
2022-08-30T22:41:31.412Z,13.31
2022-08-30T22:44:27.744Z,13.31
2022-08-30T22:47:15.751Z,13.32
2022-08-30T22:50:27.975Z,13.30
2022-08-30T22:53:46.237Z,13.30
2022-08-30T22:56:38.092Z,13.23
2022-08-30T22:59:32.328Z,13.11
2022-08-30T23:02:23.233Z,13.01
2022-08-30T23:05:21.121Z,13.00
2022-08-30T23:08:13.751Z,12.98
2022-08-30T23:11:01.873Z,12.97
2022-08-30T23:13:51.137Z,12.93
2022-08-30T23:16:45.248Z,12.87
2022-08-30T23:19:35.820Z,12.88
2022-08-30T23:22:26.893Z,12.86
2022-08-30T23:25:41.242Z,12.86
2022-08-30T23:28:55.886Z,12.82
2022-08-30T23:32:05.006Z,12.75
2022-08-30T23:35:15.997Z,12.67
2022-08-30T23:38:30.721Z,12.69
2022-08-30T23:41:41.913Z,12.67
2022-08-30T23:44:49.941Z,12.66
2022-08-30T23:48:04.068Z,12.66
2022-08-30T23:51:12.368Z,12.65
2022-08-30T23:54:45.098Z,12.59
2022-08-30T23:57:53.266Z,12.50
